<?xml version="1.0" encoding="UTF-8" standalone="no" ?>
<gpx xmlns="http://www.topografix.com/GPX/1/1" xmlns:xsi="http://www.w3.org/2001/XMLSchema-instance" xsi:schemaLocation="http://www.topografix.com/GPX/1/1 http://www.topografix.com/GPX/1/1/gpx.xsd" version="1.1" creator="VisuGPX - https://www.visugpx.com">
  <metadata>
    <name>lac du corbeau</name>
    <desc><![CDATA[trail du lac du corbeau]]></desc>
  </metadata>
  <trk>
    <name><![CDATA[Un tour au Lac des Corbeaux]]></name>
    <trkseg>
      <trkpt lat="48.0004" lon="6.94543">
        <ele>970</ele>
        <time>2016-02-22T09:22:38+01:00</time>
      </trkpt>
      <trkpt lat="47.99978" lon="6.94543">
        <ele>975</ele>
        <time>2016-02-22T09:22:43+01:00</time>
      </trkpt>
      <trkpt lat="47.9997" lon="6.94517">
        <ele>979</ele>
        <time>2016-02-22T09:22:48+01:00</time>
      </trkpt>
      <trkpt lat="47.99981" lon="6.94472">
        <ele>984</ele>
        <time>2016-02-22T09:22:53+01:00</time>
      </trkpt>
      <trkpt lat="47.9996" lon="6.9447">
        <ele>989</ele>
        <time>2016-02-22T09:22:58+01:00</time>
      </trkpt>
      <trkpt lat="47.99893" lon="6.94514">
        <ele>989</ele>
        <time>2016-02-22T09:23:03+01:00</time>
      </trkpt>
      <trkpt lat="47.99855" lon="6.94504">
        <ele>996</ele>
        <time>2016-02-22T09:23:08+01:00</time>
      </trkpt>
      <trkpt lat="47.99834" lon="6.94459">
        <ele>1014</ele>
        <time>2016-02-22T09:23:13+01:00</time>
      </trkpt>
      <trkpt lat="47.99792" lon="6.94457">
        <ele>1024</ele>
        <time>2016-02-22T09:23:18+01:00</time>
      </trkpt>
      <trkpt lat="47.99721" lon="6.94488">
        <ele>1032</ele>
        <time>2016-02-22T09:23:23+01:00</time>
      </trkpt>
      <trkpt lat="47.99661" lon="6.94527">
        <ele>1035</ele>
        <time>2016-02-22T09:23:28+01:00</time>
      </trkpt>
      <trkpt lat="47.99606" lon="6.94524">
        <ele>1048</ele>
        <time>2016-02-22T09:23:33+01:00</time>
      </trkpt>
      <trkpt lat="47.99561" lon="6.94548">
        <ele>1054</ele>
        <time>2016-02-22T09:23:38+01:00</time>
      </trkpt>
      <trkpt lat="47.99532" lon="6.94595">
        <ele>1054</ele>
        <time>2016-02-22T09:23:43+01:00</time>
      </trkpt>
      <trkpt lat="47.99527" lon="6.94618">
        <ele>1053</ele>
        <time>2016-02-22T09:23:48+01:00</time>
      </trkpt>
      <trkpt lat="47.99503" lon="6.94592">
        <ele>1065</ele>
        <time>2016-02-22T09:23:53+01:00</time>
      </trkpt>
      <trkpt lat="47.99492" lon="6.94543">
        <ele>1077</ele>
        <time>2016-02-22T09:23:58+01:00</time>
      </trkpt>
      <trkpt lat="47.99509" lon="6.94496">
        <ele>1081</ele>
        <time>2016-02-22T09:24:03+01:00</time>
      </trkpt>
      <trkpt lat="47.99528" lon="6.9447">
        <ele>1083</ele>
        <time>2016-02-22T09:24:08+01:00</time>
      </trkpt>
      <trkpt lat="47.99509" lon="6.94446">
        <ele>1093</ele>
        <time>2016-02-22T09:24:13+01:00</time>
      </trkpt>
      <trkpt lat="47.99462" lon="6.94451">
        <ele>1106</ele>
        <time>2016-02-22T09:24:18+01:00</time>
      </trkpt>
      <trkpt lat="47.99413" lon="6.94449">
        <ele>1123</ele>
        <time>2016-02-22T09:24:23+01:00</time>
      </trkpt>
      <trkpt lat="47.99386" lon="6.94464">
        <ele>1129</ele>
        <time>2016-02-22T09:24:28+01:00</time>
      </trkpt>
      <trkpt lat="47.9937" lon="6.94532">
        <ele>1121</ele>
        <time>2016-02-22T09:24:33+01:00</time>
      </trkpt>
      <trkpt lat="47.99347" lon="6.94558">
        <ele>1121</ele>
        <time>2016-02-22T09:24:38+01:00</time>
      </trkpt>
      <trkpt lat="47.99302" lon="6.94551">
        <ele>1130</ele>
        <time>2016-02-22T09:24:43+01:00</time>
      </trkpt>
      <trkpt lat="47.99253" lon="6.9454">
        <ele>1142</ele>
        <time>2016-02-22T09:24:48+01:00</time>
      </trkpt>
      <trkpt lat="47.99212" lon="6.94569">
        <ele>1146</ele>
        <time>2016-02-22T09:24:53+01:00</time>
      </trkpt>
      <trkpt lat="47.99167" lon="6.94621">
        <ele>1152</ele>
        <time>2016-02-22T09:24:58+01:00</time>
      </trkpt>
      <trkpt lat="47.99137" lon="6.94673">
        <ele>1144</ele>
        <time>2016-02-22T09:25:03+01:00</time>
      </trkpt>
      <trkpt lat="47.99112" lon="6.9472">
        <ele>1144</ele>
        <time>2016-02-22T09:25:08+01:00</time>
      </trkpt>
      <trkpt lat="47.99094" lon="6.9472">
        <ele>1149</ele>
        <time>2016-02-22T09:25:13+01:00</time>
      </trkpt>
      <trkpt lat="47.99043" lon="6.94647">
        <ele>1147</ele>
        <time>2016-02-22T09:25:18+01:00</time>
      </trkpt>
      <trkpt lat="47.99007" lon="6.94571">
        <ele>1145</ele>
        <time>2016-02-22T09:25:23+01:00</time>
      </trkpt>
      <trkpt lat="47.98968" lon="6.94485">
        <ele>1145</ele>
        <time>2016-02-22T09:25:28+01:00</time>
      </trkpt>
      <trkpt lat="47.98948" lon="6.94402">
        <ele>1148</ele>
        <time>2016-02-22T09:25:33+01:00</time>
      </trkpt>
      <trkpt lat="47.98939" lon="6.94266">
        <ele>1150</ele>
        <time>2016-02-22T09:25:38+01:00</time>
      </trkpt>
      <trkpt lat="47.98934" lon="6.94211">
        <ele>1151</ele>
        <time>2016-02-22T09:25:43+01:00</time>
      </trkpt>
      <trkpt lat="47.98952" lon="6.94175">
        <ele>1156</ele>
        <time>2016-02-22T09:25:48+01:00</time>
      </trkpt>
      <trkpt lat="47.98946" lon="6.94123">
        <ele>1153</ele>
        <time>2016-02-22T09:25:53+01:00</time>
      </trkpt>
      <trkpt lat="47.98941" lon="6.94057">
        <ele>1149</ele>
        <time>2016-02-22T09:25:58+01:00</time>
      </trkpt>
      <trkpt lat="47.98955" lon="6.93982">
        <ele>1146</ele>
        <time>2016-02-22T09:26:03+01:00</time>
      </trkpt>
      <trkpt lat="47.98973" lon="6.93942">
        <ele>1146</ele>
        <time>2016-02-22T09:26:08+01:00</time>
      </trkpt>
      <trkpt lat="47.98989" lon="6.93898">
        <ele>1146</ele>
        <time>2016-02-22T09:26:13+01:00</time>
      </trkpt>
      <trkpt lat="47.98971" lon="6.93788">
        <ele>1139</ele>
        <time>2016-02-22T09:26:18+01:00</time>
      </trkpt>
      <trkpt lat="47.98961" lon="6.93718">
        <ele>1134</ele>
        <time>2016-02-22T09:26:23+01:00</time>
      </trkpt>
      <trkpt lat="47.98966" lon="6.93658">
        <ele>1131</ele>
        <time>2016-02-22T09:26:28+01:00</time>
      </trkpt>
      <trkpt lat="47.98943" lon="6.93525">
        <ele>1129</ele>
        <time>2016-02-22T09:26:33+01:00</time>
      </trkpt>
      <trkpt lat="47.98909" lon="6.93353">
        <ele>1128</ele>
        <time>2016-02-22T09:26:38+01:00</time>
      </trkpt>
      <trkpt lat="47.98948" lon="6.93212">
        <ele>1116</ele>
        <time>2016-02-22T09:26:43+01:00</time>
      </trkpt>
      <trkpt lat="47.9898" lon="6.93172">
        <ele>1108</ele>
        <time>2016-02-22T09:26:48+01:00</time>
      </trkpt>
      <trkpt lat="47.99029" lon="6.93102">
        <ele>1089</ele>
        <time>2016-02-22T09:26:53+01:00</time>
      </trkpt>
      <trkpt lat="47.99036" lon="6.93065">
        <ele>1085</ele>
        <time>2016-02-22T09:26:58+01:00</time>
      </trkpt>
      <trkpt lat="47.9905" lon="6.93032">
        <ele>1080</ele>
        <time>2016-02-22T09:27:03+01:00</time>
      </trkpt>
      <trkpt lat="47.99054" lon="6.93003">
        <ele>1078</ele>
        <time>2016-02-22T09:27:08+01:00</time>
      </trkpt>
      <trkpt lat="47.99085" lon="6.92951">
        <ele>1074</ele>
        <time>2016-02-22T09:27:13+01:00</time>
      </trkpt>
      <trkpt lat="47.99077" lon="6.92906">
        <ele>1075</ele>
        <time>2016-02-22T09:27:18+01:00</time>
      </trkpt>
      <trkpt lat="47.99077" lon="6.92838">
        <ele>1074</ele>
        <time>2016-02-22T09:27:23+01:00</time>
      </trkpt>
      <trkpt lat="47.99065" lon="6.9275">
        <ele>1069</ele>
        <time>2016-02-22T09:27:28+01:00</time>
      </trkpt>
      <trkpt lat="47.99067" lon="6.92716">
        <ele>1069</ele>
        <time>2016-02-22T09:27:33+01:00</time>
      </trkpt>
      <trkpt lat="47.99067" lon="6.927">
        <ele>1069</ele>
        <time>2016-02-22T09:27:38+01:00</time>
      </trkpt>
      <trkpt lat="47.99027" lon="6.9264">
        <ele>1069</ele>
        <time>2016-02-22T09:27:43+01:00</time>
      </trkpt>
      <trkpt lat="47.98988" lon="6.9252">
        <ele>1073</ele>
        <time>2016-02-22T09:27:48+01:00</time>
      </trkpt>
      <trkpt lat="47.98944" lon="6.92434">
        <ele>1071</ele>
        <time>2016-02-22T09:27:53+01:00</time>
      </trkpt>
      <trkpt lat="47.98892" lon="6.92358">
        <ele>1063</ele>
        <time>2016-02-22T09:27:58+01:00</time>
      </trkpt>
      <trkpt lat="47.98867" lon="6.92295">
        <ele>1060</ele>
        <time>2016-02-22T09:28:03+01:00</time>
      </trkpt>
      <trkpt lat="47.98817" lon="6.92196">
        <ele>1056</ele>
        <time>2016-02-22T09:28:08+01:00</time>
      </trkpt>
      <trkpt lat="47.98779" lon="6.92134">
        <ele>1056</ele>
        <time>2016-02-22T09:28:13+01:00</time>
      </trkpt>
      <trkpt lat="47.987" lon="6.92045">
        <ele>1063</ele>
        <time>2016-02-22T09:28:18+01:00</time>
      </trkpt>
      <trkpt lat="47.98668" lon="6.91988">
        <ele>1069</ele>
        <time>2016-02-22T09:28:23+01:00</time>
      </trkpt>
      <trkpt lat="47.98655" lon="6.91946">
        <ele>1068</ele>
        <time>2016-02-22T09:28:28+01:00</time>
      </trkpt>
      <trkpt lat="47.98623" lon="6.9181">
        <ele>1066</ele>
        <time>2016-02-22T09:28:33+01:00</time>
      </trkpt>
      <trkpt lat="47.98585" lon="6.91627">
        <ele>1064</ele>
        <time>2016-02-22T09:28:38+01:00</time>
      </trkpt>
      <trkpt lat="47.98571" lon="6.91528">
        <ele>1065</ele>
        <time>2016-02-22T09:28:43+01:00</time>
      </trkpt>
      <trkpt lat="47.98562" lon="6.91408">
        <ele>1067</ele>
        <time>2016-02-22T09:28:48+01:00</time>
      </trkpt>
      <trkpt lat="47.98528" lon="6.91241">
        <ele>1073</ele>
        <time>2016-02-22T09:28:53+01:00</time>
      </trkpt>
      <trkpt lat="47.98483" lon="6.91103">
        <ele>1075</ele>
        <time>2016-02-22T09:28:58+01:00</time>
      </trkpt>
      <trkpt lat="47.9844" lon="6.90996">
        <ele>1076</ele>
        <time>2016-02-22T09:29:03+01:00</time>
      </trkpt>
      <trkpt lat="47.98382" lon="6.90907">
        <ele>1078</ele>
        <time>2016-02-22T09:29:08+01:00</time>
      </trkpt>
      <trkpt lat="47.98346" lon="6.90842">
        <ele>1080</ele>
        <time>2016-02-22T09:29:13+01:00</time>
      </trkpt>
      <trkpt lat="47.98352" lon="6.90826">
        <ele>1081</ele>
        <time>2016-02-22T09:29:18+01:00</time>
      </trkpt>
      <trkpt lat="47.98434" lon="6.90852">
        <ele>1089</ele>
        <time>2016-02-22T09:29:23+01:00</time>
      </trkpt>
      <trkpt lat="47.98449" lon="6.90865">
        <ele>1090</ele>
        <time>2016-02-22T09:29:28+01:00</time>
      </trkpt>
      <trkpt lat="47.98481" lon="6.9087">
        <ele>1093</ele>
        <time>2016-02-22T09:29:33+01:00</time>
      </trkpt>
      <trkpt lat="47.98528" lon="6.90904">
        <ele>1095</ele>
        <time>2016-02-22T09:29:38+01:00</time>
      </trkpt>
      <trkpt lat="47.98555" lon="6.90954">
        <ele>1097</ele>
        <time>2016-02-22T09:29:43+01:00</time>
      </trkpt>
      <trkpt lat="47.98598" lon="6.90943">
        <ele>1098</ele>
        <time>2016-02-22T09:29:48+01:00</time>
      </trkpt>
      <trkpt lat="47.98648" lon="6.90962">
        <ele>1098</ele>
        <time>2016-02-22T09:29:53+01:00</time>
      </trkpt>
      <trkpt lat="47.98659" lon="6.90998">
        <ele>1106</ele>
        <time>2016-02-22T09:29:58+01:00</time>
      </trkpt>
      <trkpt lat="47.98683" lon="6.90995">
        <ele>1104</ele>
        <time>2016-02-22T09:30:03+01:00</time>
      </trkpt>
      <trkpt lat="47.98718" lon="6.91081">
        <ele>1108</ele>
        <time>2016-02-22T09:30:08+01:00</time>
      </trkpt>
      <trkpt lat="47.98752" lon="6.91088">
        <ele>1107</ele>
        <time>2016-02-22T09:30:13+01:00</time>
      </trkpt>
      <trkpt lat="47.98776" lon="6.91131">
        <ele>1099</ele>
        <time>2016-02-22T09:30:18+01:00</time>
      </trkpt>
      <trkpt lat="47.98847" lon="6.91133">
        <ele>1083</ele>
        <time>2016-02-22T09:30:23+01:00</time>
      </trkpt>
      <trkpt lat="47.98877" lon="6.91129">
        <ele>1077</ele>
        <time>2016-02-22T09:30:28+01:00</time>
      </trkpt>
      <trkpt lat="47.98923" lon="6.91161">
        <ele>1071</ele>
        <time>2016-02-22T09:30:33+01:00</time>
      </trkpt>
      <trkpt lat="47.9897" lon="6.91146">
        <ele>1062</ele>
        <time>2016-02-22T09:30:38+01:00</time>
      </trkpt>
      <trkpt lat="47.98922" lon="6.91058">
        <ele>1060</ele>
        <time>2016-02-22T09:30:43+01:00</time>
      </trkpt>
      <trkpt lat="47.98884" lon="6.90983">
        <ele>1054</ele>
        <time>2016-02-22T09:30:48+01:00</time>
      </trkpt>
      <trkpt lat="47.98832" lon="6.90931">
        <ele>1055</ele>
        <time>2016-02-22T09:30:53+01:00</time>
      </trkpt>
      <trkpt lat="47.98787" lon="6.90875">
        <ele>1049</ele>
        <time>2016-02-22T09:30:58+01:00</time>
      </trkpt>
      <trkpt lat="47.98727" lon="6.90831">
        <ele>1046</ele>
        <time>2016-02-22T09:31:03+01:00</time>
      </trkpt>
      <trkpt lat="47.98702" lon="6.90792">
        <ele>1039</ele>
        <time>2016-02-22T09:31:08+01:00</time>
      </trkpt>
      <trkpt lat="47.98671" lon="6.90716">
        <ele>1030</ele>
        <time>2016-02-22T09:31:13+01:00</time>
      </trkpt>
      <trkpt lat="47.98644" lon="6.9063">
        <ele>1034</ele>
        <time>2016-02-22T09:31:18+01:00</time>
      </trkpt>
      <trkpt lat="47.98626" lon="6.9051">
        <ele>1045</ele>
        <time>2016-02-22T09:31:23+01:00</time>
      </trkpt>
      <trkpt lat="47.98605" lon="6.9044">
        <ele>1062</ele>
        <time>2016-02-22T09:31:28+01:00</time>
      </trkpt>
      <trkpt lat="47.98605" lon="6.9039">
        <ele>1067</ele>
        <time>2016-02-22T09:31:33+01:00</time>
      </trkpt>
      <trkpt lat="47.98623" lon="6.90364">
        <ele>1061</ele>
        <time>2016-02-22T09:31:38+01:00</time>
      </trkpt>
      <trkpt lat="47.98607" lon="6.90351">
        <ele>1070</ele>
        <time>2016-02-22T09:31:43+01:00</time>
      </trkpt>
      <trkpt lat="47.98583" lon="6.90377">
        <ele>1076</ele>
        <time>2016-02-22T09:31:48+01:00</time>
      </trkpt>
      <trkpt lat="47.9858" lon="6.90354">
        <ele>1083</ele>
        <time>2016-02-22T09:31:53+01:00</time>
      </trkpt>
      <trkpt lat="47.98587" lon="6.90325">
        <ele>1084</ele>
        <time>2016-02-22T09:31:58+01:00</time>
      </trkpt>
      <trkpt lat="47.98583" lon="6.90307">
        <ele>1084</ele>
        <time>2016-02-22T09:32:03+01:00</time>
      </trkpt>
      <trkpt lat="47.98567" lon="6.90333">
        <ele>1087</ele>
        <time>2016-02-22T09:32:08+01:00</time>
      </trkpt>
      <trkpt lat="47.98555" lon="6.9021">
        <ele>1110</ele>
        <time>2016-02-22T09:32:13+01:00</time>
      </trkpt>
      <trkpt lat="47.98562" lon="6.90163">
        <ele>1115</ele>
        <time>2016-02-22T09:32:18+01:00</time>
      </trkpt>
      <trkpt lat="47.98596" lon="6.90108">
        <ele>1113</ele>
        <time>2016-02-22T09:32:23+01:00</time>
      </trkpt>
      <trkpt lat="47.98623" lon="6.90025">
        <ele>1112</ele>
        <time>2016-02-22T09:32:28+01:00</time>
      </trkpt>
      <trkpt lat="47.98653" lon="6.89962">
        <ele>1111</ele>
        <time>2016-02-22T09:32:33+01:00</time>
      </trkpt>
      <trkpt lat="47.9872" lon="6.89889">
        <ele>1097</ele>
        <time>2016-02-22T09:32:38+01:00</time>
      </trkpt>
      <trkpt lat="47.98747" lon="6.89871">
        <ele>1091</ele>
        <time>2016-02-22T09:32:43+01:00</time>
      </trkpt>
      <trkpt lat="47.98777" lon="6.89829">
        <ele>1081</ele>
        <time>2016-02-22T09:32:48+01:00</time>
      </trkpt>
      <trkpt lat="47.98837" lon="6.89785">
        <ele>1065</ele>
        <time>2016-02-22T09:32:53+01:00</time>
      </trkpt>
      <trkpt lat="47.98869" lon="6.89753">
        <ele>1069</ele>
        <time>2016-02-22T09:32:58+01:00</time>
      </trkpt>
      <trkpt lat="47.98874" lon="6.89787">
        <ele>1064</ele>
        <time>2016-02-22T09:33:03+01:00</time>
      </trkpt>
      <trkpt lat="47.98878" lon="6.89839">
        <ele>1056</ele>
        <time>2016-02-22T09:33:08+01:00</time>
      </trkpt>
      <trkpt lat="47.9891" lon="6.89879">
        <ele>1039</ele>
        <time>2016-02-22T09:33:13+01:00</time>
      </trkpt>
      <trkpt lat="47.98921" lon="6.89931">
        <ele>1023</ele>
        <time>2016-02-22T09:33:18+01:00</time>
      </trkpt>
      <trkpt lat="47.98941" lon="6.89986">
        <ele>1008</ele>
        <time>2016-02-22T09:33:23+01:00</time>
      </trkpt>
      <trkpt lat="47.98995" lon="6.90048">
        <ele>981</ele>
        <time>2016-02-22T09:33:28+01:00</time>
      </trkpt>
      <trkpt lat="47.99032" lon="6.90103">
        <ele>967</ele>
        <time>2016-02-22T09:33:33+01:00</time>
      </trkpt>
      <trkpt lat="47.99092" lon="6.90179">
        <ele>949</ele>
        <time>2016-02-22T09:33:38+01:00</time>
      </trkpt>
      <trkpt lat="47.99162" lon="6.90252">
        <ele>940</ele>
        <time>2016-02-22T09:33:43+01:00</time>
      </trkpt>
      <trkpt lat="47.99214" lon="6.90304">
        <ele>938</ele>
        <time>2016-02-22T09:33:48+01:00</time>
      </trkpt>
      <trkpt lat="47.99237" lon="6.90354">
        <ele>928</ele>
        <time>2016-02-22T09:33:53+01:00</time>
      </trkpt>
      <trkpt lat="47.99279" lon="6.90398">
        <ele>923</ele>
        <time>2016-02-22T09:33:58+01:00</time>
      </trkpt>
      <trkpt lat="47.99297" lon="6.90471">
        <ele>906</ele>
        <time>2016-02-22T09:34:03+01:00</time>
      </trkpt>
      <trkpt lat="47.99313" lon="6.90515">
        <ele>900</ele>
        <time>2016-02-22T09:34:08+01:00</time>
      </trkpt>
      <trkpt lat="47.99252" lon="6.90442">
        <ele>905</ele>
        <time>2016-02-22T09:34:13+01:00</time>
      </trkpt>
      <trkpt lat="47.99209" lon="6.90372">
        <ele>914</ele>
        <time>2016-02-22T09:34:18+01:00</time>
      </trkpt>
      <trkpt lat="47.99155" lon="6.9033">
        <ele>906</ele>
        <time>2016-02-22T09:34:23+01:00</time>
      </trkpt>
      <trkpt lat="47.99099" lon="6.90288">
        <ele>907</ele>
        <time>2016-02-22T09:34:28+01:00</time>
      </trkpt>
      <trkpt lat="47.99038" lon="6.90262">
        <ele>902</ele>
        <time>2016-02-22T09:34:33+01:00</time>
      </trkpt>
      <trkpt lat="47.98968" lon="6.90257">
        <ele>898</ele>
        <time>2016-02-22T09:34:38+01:00</time>
      </trkpt>
      <trkpt lat="47.98917" lon="6.90283">
        <ele>896</ele>
        <time>2016-02-22T09:34:43+01:00</time>
      </trkpt>
      <trkpt lat="47.98871" lon="6.90322">
        <ele>905</ele>
        <time>2016-02-22T09:34:48+01:00</time>
      </trkpt>
      <trkpt lat="47.9884" lon="6.90375">
        <ele>911</ele>
        <time>2016-02-22T09:34:53+01:00</time>
      </trkpt>
      <trkpt lat="47.98856" lon="6.90466">
        <ele>908</ele>
        <time>2016-02-22T09:34:58+01:00</time>
      </trkpt>
      <trkpt lat="47.98907" lon="6.90523">
        <ele>904</ele>
        <time>2016-02-22T09:35:03+01:00</time>
      </trkpt>
      <trkpt lat="47.98982" lon="6.90562">
        <ele>905</ele>
        <time>2016-02-22T09:35:08+01:00</time>
      </trkpt>
      <trkpt lat="47.9909" lon="6.90594">
        <ele>906</ele>
        <time>2016-02-22T09:35:13+01:00</time>
      </trkpt>
      <trkpt lat="47.99178" lon="6.9062">
        <ele>905</ele>
        <time>2016-02-22T09:35:18+01:00</time>
      </trkpt>
      <trkpt lat="47.9927" lon="6.90641">
        <ele>904</ele>
        <time>2016-02-22T09:35:23+01:00</time>
      </trkpt>
      <trkpt lat="47.99306" lon="6.90641">
        <ele>900</ele>
        <time>2016-02-22T09:35:28+01:00</time>
      </trkpt>
      <trkpt lat="47.99342" lon="6.90633">
        <ele>895</ele>
        <time>2016-02-22T09:35:33+01:00</time>
      </trkpt>
      <trkpt lat="47.99343" lon="6.90693">
        <ele>898</ele>
        <time>2016-02-22T09:35:38+01:00</time>
      </trkpt>
      <trkpt lat="47.99354" lon="6.90735">
        <ele>899</ele>
        <time>2016-02-22T09:35:43+01:00</time>
      </trkpt>
      <trkpt lat="47.99388" lon="6.90792">
        <ele>899</ele>
        <time>2016-02-22T09:35:48+01:00</time>
      </trkpt>
      <trkpt lat="47.99404" lon="6.90852">
        <ele>904</ele>
        <time>2016-02-22T09:35:53+01:00</time>
      </trkpt>
      <trkpt lat="47.99467" lon="6.90943">
        <ele>910</ele>
        <time>2016-02-22T09:35:58+01:00</time>
      </trkpt>
      <trkpt lat="47.9951" lon="6.90975">
        <ele>914</ele>
        <time>2016-02-22T09:36:03+01:00</time>
      </trkpt>
      <trkpt lat="47.9962" lon="6.90988">
        <ele>913</ele>
        <time>2016-02-22T09:36:08+01:00</time>
      </trkpt>
      <trkpt lat="47.99717" lon="6.91004">
        <ele>906</ele>
        <time>2016-02-22T09:36:13+01:00</time>
      </trkpt>
      <trkpt lat="47.99758" lon="6.91111">
        <ele>908</ele>
        <time>2016-02-22T09:36:18+01:00</time>
      </trkpt>
      <trkpt lat="47.99722" lon="6.91165">
        <ele>920</ele>
        <time>2016-02-22T09:36:23+01:00</time>
      </trkpt>
      <trkpt lat="47.99683" lon="6.91251">
        <ele>922</ele>
        <time>2016-02-22T09:36:28+01:00</time>
      </trkpt>
      <trkpt lat="47.99661" lon="6.91317">
        <ele>912</ele>
        <time>2016-02-22T09:36:33+01:00</time>
      </trkpt>
      <trkpt lat="47.99593" lon="6.91293">
        <ele>915</ele>
        <time>2016-02-22T09:36:38+01:00</time>
      </trkpt>
      <trkpt lat="47.99514" lon="6.91246">
        <ele>919</ele>
        <time>2016-02-22T09:36:43+01:00</time>
      </trkpt>
      <trkpt lat="47.99444" lon="6.9122">
        <ele>917</ele>
        <time>2016-02-22T09:36:48+01:00</time>
      </trkpt>
      <trkpt lat="47.99399" lon="6.91207">
        <ele>918</ele>
        <time>2016-02-22T09:36:53+01:00</time>
      </trkpt>
      <trkpt lat="47.99354" lon="6.91251">
        <ele>914</ele>
        <time>2016-02-22T09:36:58+01:00</time>
      </trkpt>
      <trkpt lat="47.99324" lon="6.91296">
        <ele>913</ele>
        <time>2016-02-22T09:37:03+01:00</time>
      </trkpt>
      <trkpt lat="47.99309" lon="6.91356">
        <ele>907</ele>
        <time>2016-02-22T09:37:08+01:00</time>
      </trkpt>
      <trkpt lat="47.99284" lon="6.9139">
        <ele>908</ele>
        <time>2016-02-22T09:37:13+01:00</time>
      </trkpt>
      <trkpt lat="47.99252" lon="6.91429">
        <ele>913</ele>
        <time>2016-02-22T09:37:18+01:00</time>
      </trkpt>
      <trkpt lat="47.99253" lon="6.9151">
        <ele>906</ele>
        <time>2016-02-22T09:37:23+01:00</time>
      </trkpt>
      <trkpt lat="47.99244" lon="6.91575">
        <ele>899</ele>
        <time>2016-02-22T09:37:28+01:00</time>
      </trkpt>
      <trkpt lat="47.99228" lon="6.9163">
        <ele>891</ele>
        <time>2016-02-22T09:37:33+01:00</time>
      </trkpt>
      <trkpt lat="47.99194" lon="6.91664">
        <ele>892</ele>
        <time>2016-02-22T09:37:38+01:00</time>
      </trkpt>
      <trkpt lat="47.99131" lon="6.91677">
        <ele>895</ele>
        <time>2016-02-22T09:37:43+01:00</time>
      </trkpt>
      <trkpt lat="47.99067" lon="6.91674">
        <ele>897</ele>
        <time>2016-02-22T09:37:48+01:00</time>
      </trkpt>
      <trkpt lat="47.99018" lon="6.91708">
        <ele>898</ele>
        <time>2016-02-22T09:37:53+01:00</time>
      </trkpt>
      <trkpt lat="47.99002" lon="6.91771">
        <ele>898</ele>
        <time>2016-02-22T09:37:58+01:00</time>
      </trkpt>
      <trkpt lat="47.99038" lon="6.91831">
        <ele>895</ele>
        <time>2016-02-22T09:38:03+01:00</time>
      </trkpt>
      <trkpt lat="47.99133" lon="6.91831">
        <ele>884</ele>
        <time>2016-02-22T09:38:08+01:00</time>
      </trkpt>
      <trkpt lat="47.99183" lon="6.91789">
        <ele>879</ele>
        <time>2016-02-22T09:38:13+01:00</time>
      </trkpt>
      <trkpt lat="47.99243" lon="6.91779">
        <ele>872</ele>
        <time>2016-02-22T09:38:18+01:00</time>
      </trkpt>
      <trkpt lat="47.9928" lon="6.91779">
        <ele>865</ele>
        <time>2016-02-22T09:38:23+01:00</time>
      </trkpt>
      <trkpt lat="47.99297" lon="6.9182">
        <ele>866</ele>
        <time>2016-02-22T09:38:28+01:00</time>
      </trkpt>
      <trkpt lat="47.99277" lon="6.9186">
        <ele>877</ele>
        <time>2016-02-22T09:38:33+01:00</time>
      </trkpt>
      <trkpt lat="47.99288" lon="6.91927">
        <ele>888</ele>
        <time>2016-02-22T09:38:38+01:00</time>
      </trkpt>
      <trkpt lat="47.99431" lon="6.92181">
        <ele>934</ele>
        <time>2016-02-22T09:38:43+01:00</time>
      </trkpt>
      <trkpt lat="47.99449" lon="6.92256">
        <ele>942</ele>
        <time>2016-02-22T09:38:48+01:00</time>
      </trkpt>
      <trkpt lat="47.99451" lon="6.92337">
        <ele>943</ele>
        <time>2016-02-22T09:38:53+01:00</time>
      </trkpt>
      <trkpt lat="47.99437" lon="6.92387">
        <ele>945</ele>
        <time>2016-02-22T09:38:58+01:00</time>
      </trkpt>
      <trkpt lat="47.99413" lon="6.92436">
        <ele>952</ele>
        <time>2016-02-22T09:39:03+01:00</time>
      </trkpt>
      <trkpt lat="47.99417" lon="6.92463">
        <ele>952</ele>
        <time>2016-02-22T09:39:08+01:00</time>
      </trkpt>
      <trkpt lat="47.99469" lon="6.92502">
        <ele>933</ele>
        <time>2016-02-22T09:39:13+01:00</time>
      </trkpt>
      <trkpt lat="47.9948" lon="6.92562">
        <ele>941</ele>
        <time>2016-02-22T09:39:18+01:00</time>
      </trkpt>
      <trkpt lat="47.99498" lon="6.92627">
        <ele>946</ele>
        <time>2016-02-22T09:39:23+01:00</time>
      </trkpt>
      <trkpt lat="47.9953" lon="6.92692">
        <ele>948</ele>
        <time>2016-02-22T09:39:28+01:00</time>
      </trkpt>
      <trkpt lat="47.99545" lon="6.92771">
        <ele>956</ele>
        <time>2016-02-22T09:39:33+01:00</time>
      </trkpt>
      <trkpt lat="47.99573" lon="6.92859">
        <ele>954</ele>
        <time>2016-02-22T09:39:38+01:00</time>
      </trkpt>
      <trkpt lat="47.99509" lon="6.92802">
        <ele>971</ele>
        <time>2016-02-22T09:39:43+01:00</time>
      </trkpt>
      <trkpt lat="47.99439" lon="6.92718">
        <ele>984</ele>
        <time>2016-02-22T09:39:48+01:00</time>
      </trkpt>
      <trkpt lat="47.9939" lon="6.9264">
        <ele>990</ele>
        <time>2016-02-22T09:39:53+01:00</time>
      </trkpt>
      <trkpt lat="47.99356" lon="6.92585">
        <ele>991</ele>
        <time>2016-02-22T09:39:58+01:00</time>
      </trkpt>
      <trkpt lat="47.99282" lon="6.92541">
        <ele>1007</ele>
        <time>2016-02-22T09:40:03+01:00</time>
      </trkpt>
      <trkpt lat="47.99228" lon="6.92528">
        <ele>1026</ele>
        <time>2016-02-22T09:40:08+01:00</time>
      </trkpt>
      <trkpt lat="47.99259" lon="6.92588">
        <ele>1020</ele>
        <time>2016-02-22T09:40:13+01:00</time>
      </trkpt>
      <trkpt lat="47.99262" lon="6.92627">
        <ele>1026</ele>
        <time>2016-02-22T09:40:18+01:00</time>
      </trkpt>
      <trkpt lat="47.99336" lon="6.92713">
        <ele>1014</ele>
        <time>2016-02-22T09:40:23+01:00</time>
      </trkpt>
      <trkpt lat="47.99388" lon="6.92804">
        <ele>1004</ele>
        <time>2016-02-22T09:40:28+01:00</time>
      </trkpt>
      <trkpt lat="47.99404" lon="6.92864">
        <ele>996</ele>
        <time>2016-02-22T09:40:33+01:00</time>
      </trkpt>
      <trkpt lat="47.99379" lon="6.92925">
        <ele>992</ele>
        <time>2016-02-22T09:40:38+01:00</time>
      </trkpt>
      <trkpt lat="47.99333" lon="6.92961">
        <ele>994</ele>
        <time>2016-02-22T09:40:43+01:00</time>
      </trkpt>
      <trkpt lat="47.99295" lon="6.93042">
        <ele>996</ele>
        <time>2016-02-22T09:40:48+01:00</time>
      </trkpt>
      <trkpt lat="47.99295" lon="6.93212">
        <ele>992</ele>
        <time>2016-02-22T09:40:53+01:00</time>
      </trkpt>
      <trkpt lat="47.99298" lon="6.93319">
        <ele>993</ele>
        <time>2016-02-22T09:40:58+01:00</time>
      </trkpt>
      <trkpt lat="47.99336" lon="6.93483">
        <ele>988</ele>
        <time>2016-02-22T09:41:03+01:00</time>
      </trkpt>
      <trkpt lat="47.99388" lon="6.93606">
        <ele>994</ele>
        <time>2016-02-22T09:41:08+01:00</time>
      </trkpt>
      <trkpt lat="47.99525" lon="6.93645">
        <ele>970</ele>
        <time>2016-02-22T09:41:13+01:00</time>
      </trkpt>
      <trkpt lat="47.99613" lon="6.93668">
        <ele>958</ele>
        <time>2016-02-22T09:41:18+01:00</time>
      </trkpt>
      <trkpt lat="47.99686" lon="6.93741">
        <ele>961</ele>
        <time>2016-02-22T09:41:23+01:00</time>
      </trkpt>
      <trkpt lat="47.99726" lon="6.93788">
        <ele>965</ele>
        <time>2016-02-22T09:41:28+01:00</time>
      </trkpt>
      <trkpt lat="47.99812" lon="6.93783">
        <ele>945</ele>
        <time>2016-02-22T09:41:33+01:00</time>
      </trkpt>
      <trkpt lat="47.99895" lon="6.93791">
        <ele>933</ele>
        <time>2016-02-22T09:41:38+01:00</time>
      </trkpt>
      <trkpt lat="47.9994" lon="6.93815">
        <ele>929</ele>
        <time>2016-02-22T09:41:43+01:00</time>
      </trkpt>
      <trkpt lat="47.99997" lon="6.93862">
        <ele>920</ele>
        <time>2016-02-22T09:41:48+01:00</time>
      </trkpt>
      <trkpt lat="48.0006" lon="6.93958">
        <ele>917</ele>
        <time>2016-02-22T09:41:53+01:00</time>
      </trkpt>
      <trkpt lat="48.00105" lon="6.94023">
        <ele>907</ele>
        <time>2016-02-22T09:41:58+01:00</time>
      </trkpt>
      <trkpt lat="48.00116" lon="6.94154">
        <ele>931</ele>
        <time>2016-02-22T09:42:03+01:00</time>
      </trkpt>
      <trkpt lat="48.00121" lon="6.94248">
        <ele>944</ele>
        <time>2016-02-22T09:42:08+01:00</time>
      </trkpt>
      <trkpt lat="48.00125" lon="6.94305">
        <ele>947</ele>
        <time>2016-02-22T09:42:13+01:00</time>
      </trkpt>
      <trkpt lat="48.00092" lon="6.94389">
        <ele>958</ele>
        <time>2016-02-22T09:42:18+01:00</time>
      </trkpt>
      <trkpt lat="48.0006" lon="6.94493">
        <ele>966</ele>
        <time>2016-02-22T09:42:23+01:00</time>
      </trkpt>
      <trkpt lat="48.00052" lon="6.94521">
        <ele>968</ele>
        <time>2016-02-22T09:42:28+01:00</time>
      </trkpt>
      <trkpt lat="48.0004" lon="6.94543">
        <ele>970</ele>
        <time>2016-02-22T09:42:33+01:00</time>
      </trkpt>
    </trkseg>
  </trk>
</gpx>